createdAt,value
2018-09-03T00:01:34.583Z,57.30
2018-09-03T00:04:02.794Z,58.20
2018-09-03T00:06:30.944Z,59.60
2018-09-03T00:08:59.115Z,60.50
2018-09-03T00:11:27.321Z,61.60
2018-09-03T00:13:55.488Z,61.90
2018-09-03T00:16:23.638Z,63.20
2018-09-03T00:18:51.834Z,62.70
2018-09-03T00:21:19.994Z,63.80
2018-09-03T00:23:48.167Z,63.10
2018-09-03T00:26:16.399Z,63.80
2018-09-03T00:28:44.560Z,64.00
2018-09-03T00:31:18.216Z,64.40
2018-09-03T00:33:51.978Z,65.40
2018-09-03T00:36:25.644Z,66.80
2018-09-03T00:38:59.185Z,67.40
2018-09-03T00:41:32.885Z,67.40
2018-09-03T00:44:06.588Z,67.30
2018-09-03T00:46:40.608Z,68.60
2018-09-03T00:49:08.769Z,69.60
2018-09-03T00:51:36.947Z,70.40
2018-09-03T00:54:05.257Z,72.40
2018-09-03T00:56:33.439Z,73.30
2018-09-03T00:59:01.676Z,72.90
2018-09-03T01:01:29.881Z,72.80
2018-09-03T01:03:58.088Z,73.10
2018-09-03T01:06:26.233Z,73.10
2018-09-03T01:08:54.445Z,73.20
2018-09-03T01:11:25.174Z,72.60
2018-09-03T01:13:54.164Z,71.60
2018-09-03T01:16:22.362Z,70.00
2018-09-03T01:18:54.665Z,70.60
2018-09-03T01:21:23.381Z,71.60
2018-09-03T01:23:51.748Z,70.50
2018-09-03T01:26:19.923Z,71.00
2018-09-03T01:28:48.165Z,71.80
2018-09-03T01:31:19.012Z,71.70
2018-09-03T01:33:49.274Z,71.60
2018-09-03T01:36:18.051Z,71.60
2018-09-03T01:38:46.213Z,70.60
2018-09-03T01:41:14.411Z,69.60
2018-09-03T01:43:42.610Z,68.70
2018-09-03T01:46:10.804Z,68.80
2018-09-03T01:48:39.435Z,68.10
2018-09-03T01:51:07.618Z,68.30
2018-09-03T01:53:35.827Z,69.60
2018-09-03T01:56:04.024Z,69.50
2018-09-03T01:58:32.244Z,70.00
2018-09-03T02:01:00.458Z,69.80
2018-09-03T02:03:28.614Z,70.40
2018-09-03T02:05:56.772Z,70.40
2018-09-03T02:08:25.239Z,70.30
2018-09-03T02:10:53.446Z,69.80
2018-09-03T02:13:21.666Z,69.50
2018-09-03T02:15:49.837Z,70.50
2018-09-03T02:18:17.993Z,71.10
2018-09-03T02:20:46.161Z,71.70
2018-09-03T02:23:14.344Z,71.60
2018-09-03T02:25:42.504Z,71.60
2018-09-03T02:28:10.692Z,71.20
2018-09-03T02:30:38.874Z,70.40
2018-09-03T02:33:07.060Z,70.80
2018-09-03T02:35:35.248Z,71.30
2018-09-03T02:38:03.476Z,71.70
2018-09-03T02:40:38.132Z,71.60
2018-09-03T02:43:06.367Z,71.60
2018-09-03T02:45:34.547Z,72.20
2018-09-03T02:48:02.712Z,72.10
2018-09-03T02:50:30.920Z,73.40
2018-09-03T02:52:59.100Z,73.10
2018-09-03T02:55:27.292Z,71.80
2018-09-03T02:57:55.472Z,71.70
2018-09-03T03:00:25.892Z,71.60
2018-09-03T03:02:54.688Z,72.80
2018-09-03T03:05:22.868Z,73.10
2018-09-03T03:07:51.048Z,74.60
2018-09-03T03:10:19.321Z,74.50
2018-09-03T03:12:47.478Z,74.70
2018-09-03T03:15:15.637Z,75.50
2018-09-03T03:17:43.863Z,75.70
2018-09-03T03:20:12.053Z,74.70
2018-09-03T03:22:40.259Z,75.10
2018-09-03T03:25:08.460Z,75.80
2018-09-03T03:27:36.640Z,75.80
2018-09-03T03:30:05.622Z,75.80
2018-09-03T03:32:33.817Z,75.80
2018-09-03T03:35:02.013Z,75.50
2018-09-03T03:37:30.210Z,75.80
2018-09-03T03:39:58.368Z,76.10
2018-09-03T03:42:26.591Z,76.30
2018-09-03T03:44:54.760Z,76.60
2018-09-03T03:47:22.945Z,76.40
2018-09-03T03:49:51.141Z,76.30
2018-09-03T03:52:19.333Z,76.20
2018-09-03T03:54:47.549Z,75.80
2018-09-03T03:57:15.792Z,75.80
2018-09-03T03:59:43.988Z,76.30
2018-09-03T04:02:12.205Z,76.50
2018-09-03T04:04:40.367Z,76.60
2018-09-03T04:07:08.545Z,76.60
2018-09-03T04:09:36.750Z,76.30
2018-09-03T04:12:04.981Z,76.70
2018-09-03T04:14:33.141Z,77.10
2018-09-03T04:17:01.392Z,77.20
2018-09-03T04:19:29.589Z,77.10
2018-09-03T04:21:57.816Z,77.40
2018-09-03T04:24:25.983Z,78.00
2018-09-03T04:26:54.224Z,77.90
2018-09-03T04:29:22.485Z,77.80
2018-09-03T04:31:50.684Z,77.30
2018-09-03T04:34:18.917Z,77.30
2018-09-03T04:36:47.118Z,77.90
2018-09-03T04:39:15.277Z,78.20
2018-09-03T04:41:43.513Z,77.30
2018-09-03T04:44:11.777Z,77.70
2018-09-03T04:46:39.989Z,77.70
2018-09-03T04:49:08.233Z,77.70
2018-09-03T04:51:36.504Z,77.30
2018-09-03T04:54:04.737Z,77.90
2018-09-03T04:56:32.929Z,77.30
2018-09-03T04:59:01.230Z,77.10
2018-09-03T05:01:29.456Z,78.00
2018-09-03T05:03:57.642Z,77.20
2018-09-03T05:06:26.328Z,76.80
2018-09-03T05:08:54.585Z,76.40
2018-09-03T05:11:22.866Z,77.80
2018-09-03T05:13:51.097Z,78.10
2018-09-03T05:16:19.279Z,76.60
2018-09-03T05:18:47.480Z,75.90
2018-09-03T05:21:15.696Z,75.40
2018-09-03T05:23:43.880Z,73.90
2018-09-03T05:26:12.166Z,72.80
2018-09-03T05:28:40.458Z,74.40
2018-09-03T05:31:08.756Z,73.60
2018-09-03T05:33:36.913Z,74.40
2018-09-03T05:36:05.737Z,72.70
2018-09-03T05:38:34.729Z,73.10
2018-09-03T05:41:02.944Z,74.50
2018-09-03T05:43:31.346Z,73.90
2018-09-03T05:45:59.773Z,72.20
2018-09-03T05:48:28.025Z,72.60
2018-09-03T05:50:56.249Z,72.80
2018-09-03T05:53:24.460Z,71.70
2018-09-03T05:55:52.632Z,72.70
2018-09-03T05:58:21.822Z,72.10
2018-09-03T06:00:49.984Z,73.40
2018-09-03T06:03:18.167Z,73.60
2018-09-03T06:05:46.450Z,72.80
2018-09-03T06:08:14.658Z,72.90
2018-09-03T06:10:42.881Z,73.10
2018-09-03T06:13:11.161Z,73.10
2018-09-03T06:15:39.391Z,72.10
2018-09-03T06:18:07.576Z,71.90
2018-09-03T06:20:35.856Z,71.70
2018-09-03T06:23:04.105Z,73.90
2018-09-03T06:25:32.306Z,74.30
2018-09-03T06:28:01.479Z,74.40
2018-09-03T06:30:29.640Z,74.70
2018-09-03T06:32:57.975Z,73.80
2018-09-03T06:35:26.432Z,72.00
2018-09-03T06:37:54.598Z,72.80
2018-09-03T06:40:22.802Z,72.10
2018-09-03T06:42:51.128Z,70.40
2018-09-03T06:45:19.452Z,72.00
2018-09-03T06:47:48.737Z,72.30
2018-09-03T06:50:17.084Z,72.00
2018-09-03T06:52:45.432Z,71.60
2018-09-03T06:55:13.753Z,70.00
2018-09-03T06:57:41.905Z,69.00
2018-09-03T07:00:10.093Z,69.60
2018-09-03T07:02:38.353Z,70.10
2018-09-03T07:05:06.524Z,69.90
2018-09-03T07:07:34.809Z,68.50
2018-09-03T07:10:03.023Z,67.80
2018-09-03T07:12:31.245Z,67.30
2018-09-03T07:15:00.668Z,67.90
2018-09-03T07:17:28.895Z,68.00
2018-09-03T07:19:57.153Z,68.70
2018-09-03T07:22:25.345Z,65.60
2018-09-03T07:24:53.744Z,65.20
2018-09-03T07:27:22.268Z,63.90
2018-09-03T07:29:50.489Z,63.00
2018-09-03T07:32:18.728Z,62.70
2018-09-03T07:34:46.920Z,61.90
2018-09-03T07:37:15.097Z,60.80
2018-09-03T07:39:43.511Z,62.00
2018-09-03T07:42:11.673Z,63.20
2018-09-03T07:44:39.859Z,63.30
2018-09-03T07:47:08.081Z,62.20
2018-09-03T07:49:36.304Z,61.30
2018-09-03T07:52:04.534Z,59.70
2018-09-03T07:54:32.757Z,57.80
2018-09-03T07:57:00.921Z,59.00
2018-09-03T07:59:29.160Z,56.60
2018-09-03T08:01:57.403Z,56.50
2018-09-03T08:04:27.220Z,58.10
2018-09-03T08:06:55.429Z,56.20
2018-09-03T08:09:23.639Z,55.30
2018-09-03T08:11:51.885Z,57.10
2018-09-03T08:14:20.094Z,58.50
2018-09-03T08:16:48.273Z,57.10
2018-09-03T08:19:16.488Z,55.40
2018-09-03T08:21:44.700Z,55.30
2018-09-03T08:24:12.950Z,54.60
2018-09-03T08:26:41.139Z,55.30
2018-09-03T08:29:09.289Z,56.70
2018-09-03T08:31:37.471Z,58.10
2018-09-03T08:34:05.716Z,58.60
2018-09-03T08:36:33.935Z,57.80
2018-09-03T08:39:02.099Z,55.60
2018-09-03T08:41:30.277Z,55.10
2018-09-03T08:43:58.649Z,56.20
2018-09-03T08:46:26.856Z,55.00
2018-09-03T08:48:55.036Z,56.40
2018-09-03T08:51:23.263Z,55.90
2018-09-03T08:53:51.437Z,56.50
2018-09-03T08:56:19.625Z,56.70
2018-09-03T08:58:47.857Z,56.80
2018-09-03T09:01:16.376Z,57.30
2018-09-03T09:03:44.866Z,57.60
2018-09-03T09:06:13.173Z,57.10
2018-09-03T09:08:41.577Z,56.50
2018-09-03T09:11:10.053Z,55.20
2018-09-03T09:13:38.260Z,55.10
2018-09-03T09:16:06.457Z,55.50
2018-09-03T09:18:34.682Z,55.20
2018-09-03T09:21:03.889Z,54.80
2018-09-03T09:23:32.129Z,54.80
2018-09-03T09:26:00.366Z,55.40
2018-09-03T09:28:28.581Z,55.20
2018-09-03T09:30:56.775Z,55.90
2018-09-03T09:33:24.960Z,55.80
2018-09-03T09:35:53.466Z,56.20
2018-09-03T09:38:21.585Z,56.70
2018-09-03T09:40:49.796Z,57.30
2018-09-03T09:43:18.080Z,55.90
2018-09-03T09:45:46.268Z,54.20
2018-09-03T09:48:14.541Z,54.50
2018-09-03T09:50:43.076Z,58.10
2018-09-03T09:53:11.264Z,60.00
2018-09-03T09:55:39.476Z,60.80
2018-09-03T09:58:07.671Z,59.10
2018-09-03T10:00:41.438Z,58.90
2018-09-03T10:03:09.613Z,56.90
2018-09-03T10:05:37.806Z,58.70
2018-09-03T10:08:06.820Z,60.80
2018-09-03T10:13:09.683Z,58.20
2018-09-03T10:15:44.652Z,57.60
2018-09-03T10:18:12.909Z,57.20
2018-09-03T10:20:41.124Z,57.60
2018-09-03T10:23:09.358Z,56.80
2018-09-03T10:25:37.640Z,58.00
2018-09-03T10:28:10.799Z,58.10
2018-09-03T10:30:38.984Z,59.10
2018-09-03T10:33:07.208Z,59.60
2018-09-03T10:35:35.701Z,60.00
2018-09-03T10:38:04.079Z,57.30
2018-09-03T10:40:32.233Z,55.60
2018-09-03T10:43:00.436Z,56.20
2018-09-03T10:45:28.619Z,57.20
2018-09-03T10:47:57.024Z,55.90
2018-09-03T10:50:26.512Z,56.10
2018-09-03T10:52:55.541Z,55.20
2018-09-03T10:55:25.014Z,56.10
2018-09-03T10:57:54.156Z,55.60
2018-09-03T11:00:23.550Z,54.80
2018-09-03T11:02:53.777Z,52.20
2018-09-03T11:05:23.511Z,52.10
2018-09-03T11:07:52.604Z,52.60
2018-09-03T11:10:21.693Z,49.30
2018-09-03T11:12:52.342Z,48.10
2018-09-03T11:15:23.109Z,48.90
2018-09-03T11:17:54.389Z,47.80
2018-09-03T11:20:27.736Z,47.60
2018-09-03T11:22:58.410Z,46.90
2018-09-03T11:25:29.940Z,47.40
2018-09-03T11:28:00.818Z,46.80
2018-09-03T11:30:32.230Z,48.00
2018-09-03T11:33:02.818Z,48.40
2018-09-03T11:35:33.174Z,47.60
2018-09-03T11:38:02.885Z,52.50
2018-09-03T11:40:32.426Z,49.70
2018-09-03T11:43:04.140Z,49.80
2018-09-03T11:45:33.928Z,47.20
2018-09-03T11:48:03.255Z,47.60
2018-09-03T11:50:33.406Z,50.80
2018-09-03T11:53:04.580Z,50.00
2018-09-03T11:55:34.377Z,50.90
2018-09-03T11:58:03.807Z,51.20
2018-09-03T12:00:33.843Z,50.60
2018-09-03T12:03:03.430Z,52.00
2018-09-03T12:05:32.810Z,53.10
2018-09-03T12:08:02.900Z,51.30
2018-09-03T12:10:31.938Z,48.80
2018-09-03T12:13:01.591Z,52.20
2018-09-03T12:15:36.945Z,52.30
2018-09-03T12:18:06.530Z,52.90
2018-09-03T12:20:38.150Z,53.30
2018-09-03T12:23:07.340Z,52.40
2018-09-03T12:25:37.561Z,51.10
2018-09-03T12:28:06.595Z,50.00
2018-09-03T12:30:36.244Z,51.00
2018-09-03T12:33:07.012Z,50.30
2018-09-03T12:35:36.605Z,51.70
2018-09-03T12:38:06.103Z,52.50
2018-09-03T12:40:35.739Z,52.40
2018-09-03T12:43:05.742Z,53.10
2018-09-03T12:45:40.300Z,53.60
2018-09-03T12:48:10.428Z,54.10
2018-09-03T12:50:39.972Z,55.00
2018-09-03T12:53:09.897Z,51.60
2018-09-03T12:55:39.562Z,50.90
2018-09-03T12:58:13.424Z,51.40
2018-09-03T13:00:42.944Z,53.60
2018-09-03T13:03:12.111Z,51.30
2018-09-03T13:05:41.992Z,50.60
2018-09-03T13:08:11.044Z,50.50
2018-09-03T13:10:40.743Z,52.10
2018-09-03T13:13:10.611Z,52.00
2018-09-03T13:15:40.408Z,51.20
2018-09-03T13:18:10.606Z,51.70
2018-09-03T13:20:41.414Z,50.30
2018-09-03T13:23:11.326Z,50.30
2018-09-03T13:25:40.918Z,50.80
2018-09-03T13:28:10.854Z,51.40
2018-09-03T13:30:40.144Z,51.30
2018-09-03T13:33:09.524Z,52.70
2018-09-03T13:35:39.572Z,53.70
2018-09-03T13:38:09.807Z,52.70
2018-09-03T13:40:39.333Z,54.90
2018-09-03T13:43:09.577Z,52.70
2018-09-03T13:45:39.671Z,51.60
2018-09-03T13:48:10.708Z,50.20
2018-09-03T13:50:41.514Z,51.20
2018-09-03T13:53:10.780Z,52.70
2018-09-03T13:55:41.250Z,53.70
2018-09-03T13:58:10.737Z,56.30
2018-09-03T14:00:39.794Z,54.60
2018-09-03T14:03:10.351Z,56.70
2018-09-03T14:05:41.250Z,55.20
2018-09-03T14:08:13.143Z,56.20
2018-09-03T14:10:44.046Z,54.70
2018-09-03T14:13:14.471Z,53.60
2018-09-03T14:15:44.882Z,53.60
2018-09-03T14:18:17.299Z,56.30
2018-09-03T14:20:47.159Z,54.80
2018-09-03T14:23:18.313Z,57.00
2018-09-03T14:25:48.576Z,55.60
2018-09-03T14:28:20.500Z,55.90
2018-09-03T14:30:49.391Z,55.20
2018-09-03T14:33:22.694Z,55.30
2018-09-03T14:35:54.227Z,56.90
2018-09-03T14:38:24.498Z,55.70
2018-09-03T14:40:54.739Z,56.40
2018-09-03T14:43:24.107Z,57.50
2018-09-03T14:45:53.179Z,57.00
2018-09-03T14:48:22.310Z,57.40
2018-09-03T14:50:52.019Z,56.80
2018-09-03T14:53:23.043Z,55.90
2018-09-03T14:55:56.330Z,55.80
2018-09-03T14:58:30.297Z,56.00
2018-09-03T15:01:01.207Z,55.40
2018-09-03T15:03:33.591Z,54.90
2018-09-03T15:06:04.227Z,56.20
2018-09-03T15:08:34.317Z,56.50
2018-09-03T15:11:04.576Z,58.90
2018-09-03T15:13:34.014Z,58.90
2018-09-03T15:16:03.334Z,60.50
2018-09-03T15:18:34.078Z,61.90
2018-09-03T15:21:03.718Z,62.20
2018-09-03T15:23:33.993Z,62.30
2018-09-03T15:26:03.589Z,61.90
2018-09-03T15:28:32.710Z,61.60
2018-09-03T15:31:01.902Z,61.90
2018-09-03T15:33:32.657Z,61.90
2018-09-03T15:36:01.350Z,62.30
2018-09-03T15:38:29.889Z,62.00
2018-09-03T15:40:59.009Z,63.00
2018-09-03T15:43:28.059Z,64.00
2018-09-03T15:45:56.923Z,64.60
2018-09-03T15:48:26.308Z,65.60
2018-09-03T15:50:55.398Z,65.90
2018-09-03T15:53:25.259Z,67.20
2018-09-03T15:55:54.630Z,68.50
2018-09-03T15:58:23.386Z,68.90
2018-09-03T16:00:51.817Z,69.80
2018-09-03T16:03:19.982Z,70.20
2018-09-03T16:05:48.175Z,69.70
2018-09-03T16:08:16.562Z,69.20
2018-09-03T16:10:44.753Z,69.00
2018-09-03T16:13:13.053Z,69.40
2018-09-03T16:15:41.323Z,68.90
2018-09-03T16:18:09.480Z,69.50
2018-09-03T16:20:37.686Z,70.50
2018-09-03T16:23:06.414Z,71.70
2018-09-03T16:25:34.835Z,71.60
2018-09-03T16:28:03.181Z,72.20
2018-09-03T16:30:31.728Z,72.80
2018-09-03T16:33:00.020Z,72.50
2018-09-03T16:35:28.533Z,73.80
2018-09-03T16:37:56.825Z,73.90
2018-09-03T16:40:25.100Z,73.80
2018-09-03T16:42:53.369Z,74.70
2018-09-03T16:45:21.664Z,74.70
2018-09-03T16:47:49.918Z,75.70
2018-09-03T16:50:18.203Z,76.40
2018-09-03T16:52:46.489Z,78.00
2018-09-03T16:55:14.708Z,78.60
2018-09-03T16:57:42.870Z,78.70
2018-09-03T17:00:11.174Z,78.40
2018-09-03T17:02:39.475Z,78.10
2018-09-03T17:05:07.729Z,77.70
2018-09-03T17:07:39.686Z,78.90
2018-09-03T17:10:07.729Z,77.80
2018-09-03T17:12:36.047Z,78.20
2018-09-03T17:15:04.774Z,77.80
2018-09-03T17:17:33.008Z,76.70
2018-09-03T17:20:01.315Z,76.90
2018-09-03T17:22:29.720Z,76.90
2018-09-03T17:24:58.145Z,77.40
2018-09-03T17:27:26.520Z,77.30
2018-09-03T17:29:54.757Z,77.50
2018-09-03T17:32:22.950Z,78.30
2018-09-03T17:34:51.277Z,78.20
2018-09-03T17:37:19.467Z,78.20
2018-09-03T17:39:47.840Z,78.60
2018-09-03T17:42:16.224Z,79.00
2018-09-03T17:44:44.574Z,79.20
2018-09-03T17:47:12.807Z,79.00
2018-09-03T17:49:41.254Z,79.10
2018-09-03T17:52:09.457Z,79.50
2018-09-03T17:54:37.692Z,79.20
2018-09-03T17:57:06.014Z,81.10
2018-09-03T17:59:34.262Z,80.50
2018-09-03T18:02:02.581Z,80.60
2018-09-03T18:04:30.761Z,81.00
2018-09-03T18:06:58.963Z,80.60
2018-09-03T18:09:27.158Z,79.80
2018-09-03T18:11:55.371Z,80.40
2018-09-03T18:14:23.538Z,80.60
2018-09-03T18:16:51.763Z,80.10
2018-09-03T18:19:20.073Z,81.20
2018-09-03T18:21:48.456Z,81.10
2018-09-03T18:24:16.636Z,81.30
2018-09-03T18:26:51.488Z,82.20
2018-09-03T18:29:19.674Z,82.90
2018-09-03T18:31:48.033Z,83.00
2018-09-03T18:34:16.241Z,83.40
2018-09-03T18:36:44.479Z,83.80
2018-09-03T18:39:12.825Z,83.30
2018-09-03T18:41:41.131Z,82.90
2018-09-03T18:44:09.286Z,82.90
2018-09-03T18:46:37.560Z,82.80
2018-09-03T18:49:05.780Z,82.90
2018-09-03T18:51:34.061Z,83.80
2018-09-03T18:54:02.438Z,83.30
2018-09-03T18:56:30.627Z,83.00
2018-09-03T18:58:59.356Z,83.10
2018-09-03T19:01:27.628Z,82.90
2018-09-03T19:03:55.877Z,84.00
2018-09-03T19:06:24.085Z,83.40
2018-09-03T19:08:52.345Z,83.60
2018-09-03T19:11:20.560Z,84.30
2018-09-03T19:13:48.847Z,85.40
2018-09-03T19:16:17.048Z,86.30
2018-09-03T19:18:45.210Z,86.80
2018-09-03T19:21:13.431Z,87.90
2018-09-03T19:23:41.637Z,89.00
2018-09-03T19:26:09.838Z,88.60
2018-09-03T19:28:38.196Z,90.00
2018-09-03T19:31:06.354Z,89.50
2018-09-03T19:33:34.801Z,89.10
2018-09-03T19:36:02.985Z,88.80
2018-09-03T19:38:31.369Z,89.50
2018-09-03T19:40:59.665Z,89.70
2018-09-03T19:43:27.989Z,89.10
2018-09-03T19:45:56.182Z,89.40
2018-09-03T19:48:24.463Z,89.50
2018-09-03T19:50:52.643Z,89.20
2018-09-03T19:53:20.928Z,89.40
2018-09-03T19:55:49.130Z,90.40
2018-09-03T19:58:17.344Z,90.90
2018-09-03T20:00:45.581Z,90.90
2018-09-03T20:03:13.805Z,91.10
2018-09-03T20:05:42.013Z,91.00
2018-09-03T20:08:10.487Z,91.30
2018-09-03T20:10:38.672Z,91.80
2018-09-03T20:13:06.882Z,92.10
2018-09-03T20:15:35.109Z,92.30
2018-09-03T20:18:03.291Z,92.50
2018-09-03T20:20:31.503Z,92.70
2018-09-03T20:22:59.716Z,92.80
2018-09-03T20:25:31.958Z,92.70
2018-09-03T20:28:00.121Z,92.80
2018-09-03T20:30:28.299Z,93.20
2018-09-03T20:32:56.575Z,92.70
2018-09-03T20:35:24.813Z,92.60
2018-09-03T20:37:53.160Z,93.40
2018-09-03T20:40:21.407Z,93.10
2018-09-03T20:42:49.754Z,93.00
2018-09-03T20:45:17.877Z,93.30
2018-09-03T20:47:46.129Z,92.70
2018-09-03T20:50:14.400Z,93.00
2018-09-03T20:52:42.604Z,94.20
2018-09-03T20:55:10.889Z,94.70
2018-09-03T20:57:39.083Z,95.20
2018-09-03T21:00:07.457Z,94.50
2018-09-03T21:02:35.643Z,95.20
2018-09-03T21:05:03.869Z,96.00
2018-09-03T21:07:32.094Z,95.80
2018-09-03T21:10:00.307Z,96.10
2018-09-03T21:12:28.495Z,97.00
2018-09-03T21:14:56.808Z,97.30
2018-09-03T21:17:25.027Z,97.30
2018-09-03T21:19:53.252Z,97.20
2018-09-03T21:22:21.424Z,97.30
2018-09-03T21:24:49.653Z,97.40
2018-09-03T21:27:17.861Z,97.60
2018-09-03T21:29:46.036Z,97.90
2018-09-03T21:32:14.390Z,98.00
2018-09-03T21:34:42.582Z,98.10
2018-09-03T21:37:10.782Z,98.10
2018-09-03T21:39:38.952Z,98.30
2018-09-03T21:42:07.188Z,98.40
2018-09-03T21:44:35.386Z,98.80
2018-09-03T21:47:03.882Z,99.10
2018-09-03T21:49:32.088Z,99.60
2018-09-03T21:52:00.421Z,99.40
2018-09-03T21:54:28.648Z,99.40
2018-09-03T21:56:56.842Z,99.20
2018-09-03T21:59:25.037Z,99.00
2018-09-03T22:01:53.435Z,98.90
2018-09-03T22:04:21.614Z,98.80
2018-09-03T22:06:49.828Z,98.60
2018-09-03T22:09:18.034Z,98.70
2018-09-03T22:11:46.256Z,98.60
2018-09-03T22:14:14.487Z,98.90
2018-09-03T22:16:42.640Z,98.90
2018-09-03T22:19:10.814Z,99.60
2018-09-03T22:21:39.008Z,99.70
2018-09-03T22:24:07.230Z,99.90
2018-09-03T22:26:35.401Z,99.90
2018-09-03T22:29:03.625Z,99.90
2018-09-03T22:31:31.800Z,99.90
2018-09-03T22:34:00.039Z,99.90
2018-09-03T22:36:28.301Z,99.90
2018-09-03T22:38:56.517Z,99.90
2018-09-03T22:41:24.700Z,99.90
2018-09-03T22:43:52.888Z,99.90
2018-09-03T22:46:21.128Z,99.90
2018-09-03T22:48:49.328Z,99.90
2018-09-03T22:51:17.541Z,99.90
2018-09-03T22:53:45.744Z,99.90
2018-09-03T22:56:13.928Z,99.90
2018-09-03T22:58:42.136Z,99.90
2018-09-03T23:01:10.438Z,99.90
2018-09-03T23:03:38.680Z,99.90
2018-09-03T23:06:06.864Z,99.90
2018-09-03T23:08:35.094Z,99.90
2018-09-03T23:11:03.397Z,99.90
2018-09-03T23:13:31.603Z,99.90
2018-09-03T23:15:59.804Z,99.90
2018-09-03T23:18:28.006Z,99.90
2018-09-03T23:20:56.230Z,99.90
2018-09-03T23:23:24.456Z,99.90
2018-09-03T23:25:52.648Z,99.90
2018-09-03T23:28:20.916Z,99.90
2018-09-03T23:30:49.100Z,99.90
2018-09-03T23:33:17.291Z,99.90
2018-09-03T23:35:45.551Z,99.90
2018-09-03T23:38:13.710Z,99.90
2018-09-03T23:40:41.902Z,99.90
2018-09-03T23:43:10.134Z,99.90
2018-09-03T23:45:38.350Z,99.90
2018-09-03T23:48:06.508Z,99.90
2018-09-03T23:50:34.889Z,99.90
2018-09-03T23:53:03.069Z,99.90
2018-09-03T23:55:31.268Z,99.90
2018-09-03T23:57:59.445Z,99.90
